sensor_id;sensor_type;location;lat;lon;timestamp;P1;durP1;ratioP1;P2;durP2;ratioP2
50631;SDS011;49583;45.590;-122.498;2022-10-31T00:00:50;15.90;;;10.00;;
50631;SDS011;49583;45.590;-122.498;2022-10-31T00:03:11;19.50;;;10.50;;
50631;SDS011;49583;45.590;-122.498;2022-10-31T00:05:17;14.70;;;10.80;;
50631;SDS011;49583;45.590;-122.498;2022-10-31T00:07:23;23.80;;;10.00;;
50631;SDS011;49583;45.590;-122.498;2022-10-31T00:09:29;13.60;;;9.00;;
50631;SDS011;49583;45.590;-122.498;2022-10-31T00:11:36;17.40;;;11.40;;
50631;SDS011;49583;45.590;-122.498;2022-10-31T00:13:43;18.00;;;10.60;;
50631;SDS011;49583;45.590;-122.498;2022-10-31T00:15:49;15.20;;;11.10;;
50631;SDS011;49583;45.590;-122.498;2022-10-31T00:17:56;17.90;;;11.00;;
50631;SDS011;49583;45.590;-122.498;2022-10-31T00:20:04;19.90;;;11.80;;
50631;SDS011;49583;45.590;-122.498;2022-10-31T00:22:11;16.90;;;10.80;;
50631;SDS011;49583;45.590;-122.498;2022-10-31T00:24:17;17.00;;;11.30;;
50631;SDS011;49583;45.590;-122.498;2022-10-31T00:26:24;15.20;;;10.20;;
50631;SDS011;49583;45.590;-122.498;2022-10-31T00:28:32;16.00;;;11.50;;
50631;SDS011;49583;45.590;-122.498;2022-10-31T00:30:38;14.10;;;10.00;;
50631;SDS011;49583;45.590;-122.498;2022-10-31T00:32:45;14.80;;;11.10;;
50631;SDS011;49583;45.590;-122.498;2022-10-31T00:34:51;17.90;;;11.70;;
50631;SDS011;49583;45.590;-122.498;2022-10-31T00:36:57;14.60;;;10.20;;
50631;SDS011;49583;45.590;-122.498;2022-10-31T00:39:03;14.10;;;9.50;;
50631;SDS011;49583;45.590;-122.498;2022-10-31T00:41:11;17.20;;;9.60;;
50631;SDS011;49583;45.590;-122.498;2022-10-31T00:43:18;17.20;;;9.10;;
50631;SDS011;49583;45.590;-122.498;2022-10-31T00:45:25;15.60;;;9.10;;
50631;SDS011;49583;45.590;-122.498;2022-10-31T00:47:31;13.90;;;8.90;;
50631;SDS011;49583;45.590;-122.498;2022-10-31T00:49:38;13.80;;;8.50;;
50631;SDS011;49583;45.590;-122.498;2022-10-31T00:51:44;13.90;;;8.60;;
50631;SDS011;49583;45.590;-122.498;2022-10-31T00:53:51;15.50;;;8.20;;
50631;SDS011;49583;45.590;-122.498;2022-10-31T00:55:58;15.80;;;8.50;;
50631;SDS011;49583;45.590;-122.498;2022-10-31T00:58:04;15.40;;;8.10;;
50631;SDS011;49583;45.590;-122.498;2022-10-31T01:00:11;16.20;;;8.30;;
50631;SDS011;49583;45.590;-122.498;2022-10-31T01:02:18;14.20;;;8.30;;
50631;SDS011;49583;45.590;-122.498;2022-10-31T01:04:25;12.20;;;7.80;;
50631;SDS011;49583;45.590;-122.498;2022-10-31T01:06:33;9.40;;;7.20;;
50631;SDS011;49583;45.590;-122.498;2022-10-31T01:08:40;13.70;;;8.00;;
50631;SDS011;49583;45.590;-122.498;2022-10-31T01:11:10;13.30;;;8.80;;
50631;SDS011;49583;45.590;-122.498;2022-10-31T01:13:19;15.00;;;9.10;;
50631;SDS011;49583;45.590;-122.498;2022-10-31T01:15:26;16.20;;;8.50;;
50631;SDS011;49583;45.590;-122.498;2022-10-31T01:17:32;12.80;;;8.50;;
50631;SDS011;49583;45.590;-122.498;2022-10-31T01:19:39;14.00;;;8.90;;
50631;SDS011;49583;45.590;-122.498;2022-10-31T01:21:45;13.80;;;8.00;;
50631;SDS011;49583;45.590;-122.498;2022-10-31T01:23:55;14.80;;;8.20;;
50631;SDS011;49583;45.590;-122.498;2022-10-31T01:26:45;11.80;;;7.90;;
50631;SDS011;49583;45.590;-122.498;2022-10-31T01:28:37;12.80;;;8.10;;
50631;SDS011;49583;45.590;-122.498;2022-10-31T01:30:45;12.70;;;8.30;;
50631;SDS011;49583;45.590;-122.498;2022-10-31T01:32:51;14.20;;;8.30;;
50631;SDS011;49583;45.590;-122.498;2022-10-31T01:34:58;10.60;;;8.20;;
50631;SDS011;49583;45.590;-122.498;2022-10-31T01:37:04;14.00;;;8.10;;
50631;SDS011;49583;45.590;-122.498;2022-10-31T01:39:11;10.10;;;7.40;;
50631;SDS011;49583;45.590;-122.498;2022-10-31T01:41:21;16.10;;;9.00;;
50631;SDS011;49583;45.590;-122.498;2022-10-31T01:43:45;15.90;;;9.60;;
50631;SDS011;49583;45.590;-122.498;2022-10-31T01:45:53;14.30;;;9.60;;
50631;SDS011;49583;45.590;-122.498;2022-10-31T01:47:59;16.80;;;10.10;;
50631;SDS011;49583;45.590;-122.498;2022-10-31T01:50:11;18.30;;;9.60;;
50631;SDS011;49583;45.590;-122.498;2022-10-31T01:52:30;16.20;;;8.80;;
50631;SDS011;49583;45.590;-122.498;2022-10-31T01:54:44;11.40;;;8.00;;
50631;SDS011;49583;45.590;-122.498;2022-10-31T01:56:57;14.80;;;9.00;;
50631;SDS011;49583;45.590;-122.498;2022-10-31T01:59:07;15.00;;;8.60;;
50631;SDS011;49583;45.590;-122.498;2022-10-31T02:01:17;13.90;;;8.90;;
50631;SDS011;49583;45.590;-122.498;2022-10-31T02:03:24;14.70;;;8.70;;
50631;SDS011;49583;45.590;-122.498;2022-10-31T02:05:33;13.50;;;8.70;;
50631;SDS011;49583;45.590;-122.498;2022-10-31T02:07:44;14.20;;;9.60;;
50631;SDS011;49583;45.590;-122.498;2022-10-31T02:10:03;12.50;;;8.80;;
50631;SDS011;49583;45.590;-122.498;2022-10-31T02:12:10;18.20;;;10.00;;
50631;SDS011;49583;45.590;-122.498;2022-10-31T02:14:20;14.50;;;9.90;;
50631;SDS011;49583;45.590;-122.498;2022-10-31T02:16:28;17.70;;;9.90;;
50631;SDS011;49583;45.590;-122.498;2022-10-31T02:18:34;14.00;;;8.90;;
50631;SDS011;49583;45.590;-122.498;2022-10-31T02:30:20;10.10;;;7.90;;
50631;SDS011;49583;45.590;-122.498;2022-10-31T02:35:06;8.80;;;7.30;;
50631;SDS011;49583;45.590;-122.498;2022-10-31T02:37:36;12.60;;;8.00;;
50631;SDS011;49583;45.590;-122.498;2022-10-31T02:39:57;15.30;;;7.90;;
50631;SDS011;49583;45.590;-122.498;2022-10-31T02:43:12;14.40;;;8.70;;
50631;SDS011;49583;45.590;-122.498;2022-10-31T02:45:41;12.60;;;7.80;;
50631;SDS011;49583;45.590;-122.498;2022-10-31T02:47:58;15.00;;;9.10;;
50631;SDS011;49583;45.590;-122.498;2022-10-31T02:50:13;14.80;;;9.10;;
50631;SDS011;49583;45.590;-122.498;2022-10-31T02:52:27;15.60;;;9.10;;
50631;SDS011;49583;45.590;-122.498;2022-10-31T02:54:38;13.70;;;9.60;;
50631;SDS011;49583;45.590;-122.498;2022-10-31T02:56:45;15.60;;;9.90;;
50631;SDS011;49583;45.590;-122.498;2022-10-31T02:59:02;16.60;;;10.60;;
50631;SDS011;49583;45.590;-122.498;2022-10-31T03:01:18;16.60;;;10.70;;
50631;SDS011;49583;45.590;-122.498;2022-10-31T03:03:47;22.00;;;10.40;;
50631;SDS011;49583;45.590;-122.498;2022-10-31T03:09:43;19.40;;;10.30;;
50631;SDS011;49583;45.590;-122.498;2022-10-31T03:11:27;14.90;;;10.40;;
50631;SDS011;49583;45.590;-122.498;2022-10-31T03:21:13;20.60;;;11.90;;
50631;SDS011;49583;45.590;-122.498;2022-10-31T03:23:25;21.80;;;10.20;;
50631;SDS011;49583;45.590;-122.498;2022-10-31T03:25:34;15.90;;;9.30;;
50631;SDS011;49583;45.590;-122.498;2022-10-31T03:27:45;20.00;;;9.70;;
50631;SDS011;49583;45.590;-122.498;2022-10-31T03:29:55;14.50;;;9.80;;
50631;SDS011;49583;45.590;-122.498;2022-10-31T03:32:09;21.10;;;9.40;;
50631;SDS011;49583;45.590;-122.498;2022-10-31T03:34:22;12.30;;;7.60;;
50631;SDS011;49583;45.590;-122.498;2022-10-31T03:36:30;21.20;;;8.60;;
50631;SDS011;49583;45.590;-122.498;2022-10-31T03:38:39;13.80;;;8.50;;
50631;SDS011;49583;45.590;-122.498;2022-10-31T03:40:51;13.60;;;8.10;;
50631;SDS011;49583;45.590;-122.498;2022-10-31T03:43:07;15.30;;;8.80;;
50631;SDS011;49583;45.590;-122.498;2022-10-31T03:45:21;17.60;;;9.10;;
50631;SDS011;49583;45.590;-122.498;2022-10-31T03:47:31;18.50;;;9.60;;
50631;SDS011;49583;45.590;-122.498;2022-10-31T03:49:39;13.70;;;9.10;;
50631;SDS011;49583;45.590;-122.498;2022-10-31T03:52:02;15.40;;;8.70;;
50631;SDS011;49583;45.590;-122.498;2022-10-31T03:56:36;13.00;;;7.80;;
50631;SDS011;49583;45.590;-122.498;2022-10-31T03:58:57;15.80;;;8.30;;
50631;SDS011;49583;45.590;-122.498;2022-10-31T04:01:05;10.70;;;8.50;;
50631;SDS011;49583;45.590;-122.498;2022-10-31T04:03:17;15.70;;;9.30;;
50631;SDS011;49583;45.590;-122.498;2022-10-31T04:05:33;17.30;;;9.70;;
50631;SDS011;49583;45.590;-122.498;2022-10-31T04:07:41;16.80;;;8.70;;
50631;SDS011;49583;45.590;-122.498;2022-10-31T04:09:53;13.20;;;9.00;;
50631;SDS011;49583;45.590;-122.498;2022-10-31T04:12:02;17.60;;;9.30;;
50631;SDS011;49583;45.590;-122.498;2022-10-31T04:14:36;12.40;;;7.80;;
50631;SDS011;49583;45.590;-122.498;2022-10-31T04:16:45;12.10;;;8.30;;
50631;SDS011;49583;45.590;-122.498;2022-10-31T04:18:52;12.40;;;7.80;;
50631;SDS011;49583;45.590;-122.498;2022-10-31T04:21:00;15.30;;;8.90;;
50631;SDS011;49583;45.590;-122.498;2022-10-31T04:23:17;11.90;;;8.50;;
50631;SDS011;49583;45.590;-122.498;2022-10-31T04:25:31;13.70;;;7.30;;
50631;SDS011;49583;45.590;-122.498;2022-10-31T04:27:38;14.20;;;7.40;;
50631;SDS011;49583;45.590;-122.498;2022-10-31T04:29:45;13.40;;;7.40;;
50631;SDS011;49583;45.590;-122.498;2022-10-31T04:31:54;14.30;;;7.70;;
50631;SDS011;49583;45.590;-122.498;2022-10-31T04:34:01;12.10;;;7.20;;
50631;SDS011;49583;45.590;-122.498;2022-10-31T04:36:08;11.20;;;7.50;;
50631;SDS011;49583;45.590;-122.498;2022-10-31T04:38:15;10.90;;;6.00;;
50631;SDS011;49583;45.590;-122.498;2022-10-31T04:40:21;12.10;;;6.70;;
50631;SDS011;49583;45.590;-122.498;2022-10-31T04:42:30;11.90;;;7.40;;
50631;SDS011;49583;45.590;-122.498;2022-10-31T04:44:39;18.80;;;7.40;;
50631;SDS011;49583;45.590;-122.498;2022-10-31T04:46:45;11.10;;;7.60;;
50631;SDS011;49583;45.590;-122.498;2022-10-31T04:48:53;12.00;;;7.00;;
50631;SDS011;49583;45.590;-122.498;2022-10-31T04:51:00;11.20;;;7.30;;
50631;SDS011;49583;45.590;-122.498;2022-10-31T04:53:08;15.40;;;6.80;;
50631;SDS011;49583;45.590;-122.498;2022-10-31T04:55:35;9.40;;;6.10;;
50631;SDS011;49583;45.590;-122.498;2022-10-31T04:57:45;9.70;;;5.80;;
50631;SDS011;49583;45.590;-122.498;2022-10-31T04:59:53;4.60;;;3.90;;
50631;SDS011;49583;45.590;-122.498;2022-10-31T05:02:00;8.60;;;6.20;;
50631;SDS011;49583;45.590;-122.498;2022-10-31T05:04:19;12.40;;;5.70;;
50631;SDS011;49583;45.590;-122.498;2022-10-31T05:06:26;10.80;;;6.00;;
50631;SDS011;49583;45.590;-122.498;2022-10-31T05:08:33;12.10;;;6.80;;
50631;SDS011;49583;45.590;-122.498;2022-10-31T05:10:41;10.10;;;6.60;;
50631;SDS011;49583;45.590;-122.498;2022-10-31T05:12:48;11.60;;;5.40;;
50631;SDS011;49583;45.590;-122.498;2022-10-31T05:15:24;13.30;;;5.60;;
50631;SDS011;49583;45.590;-122.498;2022-10-31T05:17:50;9.50;;;5.50;;
50631;SDS011;49583;45.590;-122.498;2022-10-31T05:20:27;11.90;;;5.40;;
50631;SDS011;49583;45.590;-122.498;2022-10-31T05:22:53;13.40;;;5.90;;
50631;SDS011;49583;45.590;-122.498;2022-10-31T05:25:01;9.00;;;6.10;;
50631;SDS011;49583;45.590;-122.498;2022-10-31T05:27:08;12.10;;;5.80;;
50631;SDS011;49583;45.590;-122.498;2022-10-31T05:29:15;13.10;;;5.70;;
50631;SDS011;49583;45.590;-122.498;2022-10-31T05:31:22;9.70;;;5.20;;
50631;SDS011;49583;45.590;-122.498;2022-10-31T05:33:29;8.20;;;5.30;;
50631;SDS011;49583;45.590;-122.498;2022-10-31T05:35:55;9.50;;;4.90;;
50631;SDS011;49583;45.590;-122.498;2022-10-31T05:38:01;9.60;;;4.50;;
50631;SDS011;49583;45.590;-122.498;2022-10-31T05:40:09;12.30;;;5.10;;
50631;SDS011;49583;45.590;-122.498;2022-10-31T05:42:17;9.00;;;4.70;;
50631;SDS011;49583;45.590;-122.498;2022-10-31T05:44:24;11.00;;;5.60;;
50631;SDS011;49583;45.590;-122.498;2022-10-31T05:46:45;10.50;;;4.60;;
50631;SDS011;49583;45.590;-122.498;2022-10-31T05:49:11;15.20;;;5.20;;
50631;SDS011;49583;45.590;-122.498;2022-10-31T05:51:36;11.80;;;5.40;;
50631;SDS011;49583;45.590;-122.498;2022-10-31T05:53:45;9.60;;;4.20;;
50631;SDS011;49583;45.590;-122.498;2022-10-31T05:55:52;11.30;;;4.90;;
50631;SDS011;49583;45.590;-122.498;2022-10-31T05:57:59;9.70;;;5.10;;
50631;SDS011;49583;45.590;-122.498;2022-10-31T06:00:07;9.30;;;4.90;;
50631;SDS011;49583;45.590;-122.498;2022-10-31T06:02:23;6.10;;;3.80;;
50631;SDS011;49583;45.590;-122.498;2022-10-31T06:04:57;9.90;;;4.00;;
50631;SDS011;49583;45.590;-122.498;2022-10-31T06:07:03;5.50;;;3.50;;
50631;SDS011;49583;45.590;-122.498;2022-10-31T06:09:10;12.70;;;4.60;;
50631;SDS011;49583;45.590;-122.498;2022-10-31T06:11:21;12.00;;;3.50;;
50631;SDS011;49583;45.590;-122.498;2022-10-31T06:13:39;6.60;;;3.60;;
50631;SDS011;49583;45.590;-122.498;2022-10-31T06:15:53;14.20;;;3.60;;
50631;SDS011;49583;45.590;-122.498;2022-10-31T06:18:04;10.80;;;3.50;;
50631;SDS011;49583;45.590;-122.498;2022-10-31T06:20:20;7.70;;;5.00;;
50631;SDS011;49583;45.590;-122.498;2022-10-31T06:22:37;14.60;;;2.90;;
50631;SDS011;49583;45.590;-122.498;2022-10-31T06:24:44;4.80;;;2.80;;
50631;SDS011;49583;45.590;-122.498;2022-10-31T06:27:04;10.50;;;2.80;;
50631;SDS011;49583;45.590;-122.498;2022-10-31T06:29:12;7.30;;;2.70;;
50631;SDS011;49583;45.590;-122.498;2022-10-31T06:31:51;12.00;;;3.10;;
50631;SDS011;49583;45.590;-122.498;2022-10-31T06:33:58;6.80;;;2.70;;
50631;SDS011;49583;45.590;-122.498;2022-10-31T06:36:05;6.60;;;2.80;;
50631;SDS011;49583;45.590;-122.498;2022-10-31T06:38:11;7.00;;;3.40;;
50631;SDS011;49583;45.590;-122.498;2022-10-31T06:40:19;7.70;;;3.50;;
50631;SDS011;49583;45.590;-122.498;2022-10-31T06:42:59;9.80;;;2.90;;
50631;SDS011;49583;45.590;-122.498;2022-10-31T06:45:07;6.30;;;3.60;;
50631;SDS011;49583;45.590;-122.498;2022-10-31T06:47:42;5.00;;;2.20;;
50631;SDS011;49583;45.590;-122.498;2022-10-31T06:50:28;9.60;;;3.10;;
50631;SDS011;49583;45.590;-122.498;2022-10-31T06:52:34;4.40;;;2.50;;
50631;SDS011;49583;45.590;-122.498;2022-10-31T06:54:40;6.00;;;3.00;;
50631;SDS011;49583;45.590;-122.498;2022-10-31T06:56:47;8.50;;;2.50;;
50631;SDS011;49583;45.590;-122.498;2022-10-31T06:58:54;10.90;;;2.80;;
50631;SDS011;49583;45.590;-122.498;2022-10-31T07:01:23;4.70;;;3.80;;
50631;SDS011;49583;45.590;-122.498;2022-10-31T07:03:30;9.80;;;4.00;;
50631;SDS011;49583;45.590;-122.498;2022-10-31T07:05:37;6.60;;;3.10;;
50631;SDS011;49583;45.590;-122.498;2022-10-31T07:07:43;6.60;;;2.90;;
50631;SDS011;49583;45.590;-122.498;2022-10-31T07:09:49;6.20;;;2.80;;
50631;SDS011;49583;45.590;-122.498;2022-10-31T07:12:06;8.00;;;3.10;;
50631;SDS011;49583;45.590;-122.498;2022-10-31T07:14:14;5.10;;;2.90;;
50631;SDS011;49583;45.590;-122.498;2022-10-31T07:16:21;13.10;;;3.40;;
50631;SDS011;49583;45.590;-122.498;2022-10-31T07:18:28;9.40;;;3.00;;
50631;SDS011;49583;45.590;-122.498;2022-10-31T07:20:34;6.10;;;3.20;;
50631;SDS011;49583;45.590;-122.498;2022-10-31T07:22:41;7.20;;;3.40;;
50631;SDS011;49583;45.590;-122.498;2022-10-31T07:24:54;5.60;;;2.80;;
50631;SDS011;49583;45.590;-122.498;2022-10-31T07:27:21;10.80;;;2.70;;
50631;SDS011;49583;45.590;-122.498;2022-10-31T07:29:28;10.30;;;4.00;;
50631;SDS011;49583;45.590;-122.498;2022-10-31T07:31:35;6.60;;;3.10;;
50631;SDS011;49583;45.590;-122.498;2022-10-31T07:33:48;8.10;;;3.70;;
50631;SDS011;49583;45.590;-122.498;2022-10-31T07:36:05;5.70;;;2.80;;
50631;SDS011;49583;45.590;-122.498;2022-10-31T07:38:12;8.10;;;3.00;;
50631;SDS011;49583;45.590;-122.498;2022-10-31T07:40:20;4.90;;;3.10;;
50631;SDS011;49583;45.590;-122.498;2022-10-31T07:42:28;5.80;;;3.10;;
50631;SDS011;49583;45.590;-122.498;2022-10-31T07:44:35;9.60;;;3.70;;
50631;SDS011;49583;45.590;-122.498;2022-10-31T07:47:13;9.00;;;3.70;;
50631;SDS011;49583;45.590;-122.498;2022-10-31T07:49:38;6.70;;;3.90;;
50631;SDS011;49583;45.590;-122.498;2022-10-31T07:52:10;6.10;;;3.30;;
50631;SDS011;49583;45.590;-122.498;2022-10-31T07:54:45;10.80;;;3.80;;
50631;SDS011;49583;45.590;-122.498;2022-10-31T07:56:58;8.70;;;3.80;;
50631;SDS011;49583;45.590;-122.498;2022-10-31T07:59:05;8.70;;;3.90;;
50631;SDS011;49583;45.590;-122.498;2022-10-31T08:01:11;7.70;;;3.90;;
50631;SDS011;49583;45.590;-122.498;2022-10-31T08:03:21;6.30;;;4.00;;
50631;SDS011;49583;45.590;-122.498;2022-10-31T08:05:46;9.60;;;3.50;;
50631;SDS011;49583;45.590;-122.498;2022-10-31T08:08:02;8.60;;;4.10;;
50631;SDS011;49583;45.590;-122.498;2022-10-31T08:10:09;7.50;;;3.70;;
50631;SDS011;49583;45.590;-122.498;2022-10-31T08:12:16;10.20;;;3.90;;
50631;SDS011;49583;45.590;-122.498;2022-10-31T08:14:22;8.60;;;3.60;;
50631;SDS011;49583;45.590;-122.498;2022-10-31T08:16:29;5.30;;;3.10;;
50631;SDS011;49583;45.590;-122.498;2022-10-31T08:18:37;9.40;;;3.50;;
50631;SDS011;49583;45.590;-122.498;2022-10-31T08:20:45;7.80;;;3.60;;
50631;SDS011;49583;45.590;-122.498;2022-10-31T08:22:52;3.70;;;2.50;;
50631;SDS011;49583;45.590;-122.498;2022-10-31T08:24:59;10.00;;;3.50;;
50631;SDS011;49583;45.590;-122.498;2022-10-31T08:27:05;9.40;;;3.10;;
50631;SDS011;49583;45.590;-122.498;2022-10-31T08:29:14;5.50;;;2.80;;
50631;SDS011;49583;45.590;-122.498;2022-10-31T08:31:22;5.70;;;3.00;;
50631;SDS011;49583;45.590;-122.498;2022-10-31T08:33:55;6.50;;;2.80;;
50631;SDS011;49583;45.590;-122.498;2022-10-31T08:36:15;5.60;;;2.90;;
50631;SDS011;49583;45.590;-122.498;2022-10-31T08:38:27;7.10;;;2.90;;
50631;SDS011;49583;45.590;-122.498;2022-10-31T08:40:34;6.10;;;2.30;;
50631;SDS011;49583;45.590;-122.498;2022-10-31T08:42:41;4.40;;;2.10;;
50631;SDS011;49583;45.590;-122.498;2022-10-31T08:44:48;6.70;;;2.40;;
50631;SDS011;49583;45.590;-122.498;2022-10-31T08:46:57;3.30;;;1.80;;
50631;SDS011;49583;45.590;-122.498;2022-10-31T08:49:03;5.50;;;2.50;;
50631;SDS011;49583;45.590;-122.498;2022-10-31T08:51:10;6.00;;;3.00;;
50631;SDS011;49583;45.590;-122.498;2022-10-31T08:53:19;6.70;;;2.40;;
50631;SDS011;49583;45.590;-122.498;2022-10-31T08:55:33;9.70;;;2.60;;
50631;SDS011;49583;45.590;-122.498;2022-10-31T08:57:44;8.40;;;2.20;;
50631;SDS011;49583;45.590;-122.498;2022-10-31T08:59:51;7.70;;;2.90;;
50631;SDS011;49583;45.590;-122.498;2022-10-31T09:02:01;6.70;;;2.80;;
50631;SDS011;49583;45.590;-122.498;2022-10-31T09:04:07;5.40;;;2.50;;
50631;SDS011;49583;45.590;-122.498;2022-10-31T09:06:14;7.80;;;3.00;;
50631;SDS011;49583;45.590;-122.498;2022-10-31T09:08:24;5.90;;;2.90;;
50631;SDS011;49583;45.590;-122.498;2022-10-31T09:10:32;7.60;;;3.10;;
50631;SDS011;49583;45.590;-122.498;2022-10-31T09:12:40;6.60;;;2.80;;
50631;SDS011;49583;45.590;-122.498;2022-10-31T09:14:52;5.00;;;2.80;;
50631;SDS011;49583;45.590;-122.498;2022-10-31T09:17:07;5.30;;;3.00;;
50631;SDS011;49583;45.590;-122.498;2022-10-31T09:19:27;7.50;;;2.50;;
50631;SDS011;49583;45.590;-122.498;2022-10-31T09:21:34;5.90;;;2.90;;
50631;SDS011;49583;45.590;-122.498;2022-10-31T09:23:41;5.40;;;3.10;;
50631;SDS011;49583;45.590;-122.498;2022-10-31T09:25:48;6.80;;;2.60;;
50631;SDS011;49583;45.590;-122.498;2022-10-31T09:28:08;8.80;;;2.40;;
50631;SDS011;49583;45.590;-122.498;2022-10-31T09:30:16;4.80;;;2.40;;
50631;SDS011;49583;45.590;-122.498;2022-10-31T09:32:25;8.20;;;2.60;;
50631;SDS011;49583;45.590;-122.498;2022-10-31T09:34:32;4.50;;;1.90;;
50631;SDS011;49583;45.590;-122.498;2022-10-31T09:36:47;5.20;;;2.00;;
50631;SDS011;49583;45.590;-122.498;2022-10-31T09:38:55;5.60;;;2.00;;
50631;SDS011;49583;45.590;-122.498;2022-10-31T09:41:24;5.80;;;2.80;;
50631;SDS011;49583;45.590;-122.498;2022-10-31T09:51:34;5.70;;;2.20;;
50631;SDS011;49583;45.590;-122.498;2022-10-31T09:54:01;8.50;;;2.70;;
50631;SDS011;49583;45.590;-122.498;2022-10-31T09:56:11;5.20;;;1.80;;
50631;SDS011;49583;45.590;-122.498;2022-10-31T10:00:38;6.20;;;2.60;;
50631;SDS011;49583;45.590;-122.498;2022-10-31T10:02:53;6.80;;;2.60;;
50631;SDS011;49583;45.590;-122.498;2022-10-31T10:08:13;4.80;;;2.20;;
50631;SDS011;49583;45.590;-122.498;2022-10-31T10:10:50;6.20;;;2.40;;
50631;SDS011;49583;45.590;-122.498;2022-10-31T10:18:11;7.30;;;2.20;;
50631;SDS011;49583;45.590;-122.498;2022-10-31T10:23:16;8.00;;;2.10;;
50631;SDS011;49583;45.590;-122.498;2022-10-31T10:25:47;9.20;;;2.40;;
50631;SDS011;49583;45.590;-122.498;2022-10-31T10:28:08;12.10;;;2.00;;
50631;SDS011;49583;45.590;-122.498;2022-10-31T10:30:37;10.70;;;2.00;;
50631;SDS011;49583;45.590;-122.498;2022-10-31T10:32:57;4.60;;;2.10;;
50631;SDS011;49583;45.590;-122.498;2022-10-31T10:35:24;5.10;;;1.60;;
50631;SDS011;49583;45.590;-122.498;2022-10-31T10:37:36;3.30;;;1.10;;
50631;SDS011;49583;45.590;-122.498;2022-10-31T10:39:49;10.10;;;1.90;;
50631;SDS011;49583;45.590;-122.498;2022-10-31T10:42:06;4.40;;;1.50;;
50631;SDS011;49583;45.590;-122.498;2022-10-31T10:44:39;4.60;;;1.40;;
50631;SDS011;49583;45.590;-122.498;2022-10-31T10:47:11;4.60;;;1.20;;
50631;SDS011;49583;45.590;-122.498;2022-10-31T10:49:52;11.00;;;1.60;;
50631;SDS011;49583;45.590;-122.498;2022-10-31T10:59:13;4.70;;;1.50;;
50631;SDS011;49583;45.590;-122.498;2022-10-31T11:01:23;7.50;;;1.60;;
50631;SDS011;49583;45.590;-122.498;2022-10-31T11:03:30;10.80;;;2.20;;
50631;SDS011;49583;45.590;-122.498;2022-10-31T11:05:54;6.20;;;1.90;;
50631;SDS011;49583;45.590;-122.498;2022-10-31T11:08:03;5.00;;;1.90;;
50631;SDS011;49583;45.590;-122.498;2022-10-31T11:10:12;4.60;;;1.50;;
50631;SDS011;49583;45.590;-122.498;2022-10-31T11:12:26;4.40;;;1.50;;
50631;SDS011;49583;45.590;-122.498;2022-10-31T11:17:29;5.40;;;1.90;;
50631;SDS011;49583;45.590;-122.498;2022-10-31T11:19:39;6.60;;;1.70;;
50631;SDS011;49583;45.590;-122.498;2022-10-31T11:21:45;7.60;;;1.90;;
50631;SDS011;49583;45.590;-122.498;2022-10-31T11:26:20;8.10;;;2.70;;
50631;SDS011;49583;45.590;-122.498;2022-10-31T11:28:30;4.30;;;1.60;;
50631;SDS011;49583;45.590;-122.498;2022-10-31T11:30:44;4.20;;;1.60;;
50631;SDS011;49583;45.590;-122.498;2022-10-31T11:32:57;3.90;;;1.90;;
50631;SDS011;49583;45.590;-122.498;2022-10-31T11:35:09;4.20;;;1.50;;
50631;SDS011;49583;45.590;-122.498;2022-10-31T11:37:28;6.10;;;1.10;;
50631;SDS011;49583;45.590;-122.498;2022-10-31T11:39:51;5.80;;;1.70;;
50631;SDS011;49583;45.590;-122.498;2022-10-31T11:42:00;10.90;;;1.30;;
50631;SDS011;49583;45.590;-122.498;2022-10-31T11:44:13;8.20;;;1.50;;
50631;SDS011;49583;45.590;-122.498;2022-10-31T11:46:37;5.70;;;2.40;;
50631;SDS011;49583;45.590;-122.498;2022-10-31T11:48:50;3.80;;;1.50;;
50631;SDS011;49583;45.590;-122.498;2022-10-31T11:50:59;5.30;;;1.70;;
50631;SDS011;49583;45.590;-122.498;2022-10-31T11:53:13;3.60;;;1.50;;
50631;SDS011;49583;45.590;-122.498;2022-10-31T11:55:35;9.80;;;2.10;;
50631;SDS011;49583;45.590;-122.498;2022-10-31T11:57:44;8.30;;;1.90;;
50631;SDS011;49583;45.590;-122.498;2022-10-31T11:59:53;6.80;;;1.80;;
50631;SDS011;49583;45.590;-122.498;2022-10-31T12:02:01;4.10;;;1.30;;
50631;SDS011;49583;45.590;-122.498;2022-10-31T12:04:31;3.70;;;1.40;;
50631;SDS011;49583;45.590;-122.498;2022-10-31T12:06:50;6.80;;;1.70;;
50631;SDS011;49583;45.590;-122.498;2022-10-31T12:08:59;10.50;;;1.90;;
50631;SDS011;49583;45.590;-122.498;2022-10-31T12:16:19;3.70;;;1.50;;
50631;SDS011;49583;45.590;-122.498;2022-10-31T12:37:20;8.30;;;1.50;;
50631;SDS011;49583;45.590;-122.498;2022-10-31T12:42:46;7.90;;;1.30;;
50631;SDS011;49583;45.590;-122.498;2022-10-31T12:47:39;9.70;;;2.00;;
50631;SDS011;49583;45.590;-122.498;2022-10-31T12:57:45;7.70;;;1.60;;
50631;SDS011;49583;45.590;-122.498;2022-10-31T13:07:04;3.50;;;1.60;;
50631;SDS011;49583;45.590;-122.498;2022-10-31T13:09:17;3.80;;;1.40;;
50631;SDS011;49583;45.590;-122.498;2022-10-31T13:11:29;5.90;;;1.90;;
50631;SDS011;49583;45.590;-122.498;2022-10-31T13:15:52;5.10;;;1.60;;
50631;SDS011;49583;45.590;-122.498;2022-10-31T13:18:06;7.40;;;2.20;;
50631;SDS011;49583;45.590;-122.498;2022-10-31T13:20:29;9.80;;;2.10;;
50631;SDS011;49583;45.590;-122.498;2022-10-31T13:22:44;5.70;;;1.60;;
50631;SDS011;49583;45.590;-122.498;2022-10-31T13:25:10;6.30;;;2.30;;
50631;SDS011;49583;45.590;-122.498;2022-10-31T13:27:36;7.10;;;2.20;;
50631;SDS011;49583;45.590;-122.498;2022-10-31T13:32:22;5.40;;;1.80;;
50631;SDS011;49583;45.590;-122.498;2022-10-31T13:34:37;3.30;;;1.80;;
50631;SDS011;49583;45.590;-122.498;2022-10-31T13:36:54;4.20;;;1.70;;
50631;SDS011;49583;45.590;-122.498;2022-10-31T13:39:19;9.30;;;2.30;;
50631;SDS011;49583;45.590;-122.498;2022-10-31T13:41:50;6.60;;;2.10;;
50631;SDS011;49583;45.590;-122.498;2022-10-31T13:48:39;8.70;;;2.00;;
50631;SDS011;49583;45.590;-122.498;2022-10-31T13:50:58;5.10;;;1.80;;
50631;SDS011;49583;45.590;-122.498;2022-10-31T14:00:02;5.50;;;2.80;;
50631;SDS011;49583;45.590;-122.498;2022-10-31T14:02:29;7.50;;;2.80;;
50631;SDS011;49583;45.590;-122.498;2022-10-31T14:04:38;8.70;;;3.10;;
50631;SDS011;49583;45.590;-122.498;2022-10-31T14:11:40;11.80;;;2.80;;
50631;SDS011;49583;45.590;-122.498;2022-10-31T14:13:54;13.50;;;3.40;;
50631;SDS011;49583;45.590;-122.498;2022-10-31T14:16:03;12.00;;;3.50;;
50631;SDS011;49583;45.590;-122.498;2022-10-31T14:18:19;13.00;;;3.60;;
50631;SDS011;49583;45.590;-122.498;2022-10-31T14:20:37;12.10;;;3.60;;
50631;SDS011;49583;45.590;-122.498;2022-10-31T14:22:44;6.20;;;2.90;;
50631;SDS011;49583;45.590;-122.498;2022-10-31T14:24:51;12.00;;;3.00;;
50631;SDS011;49583;45.590;-122.498;2022-10-31T14:29:27;6.90;;;2.80;;
50631;SDS011;49583;45.590;-122.498;2022-10-31T14:31:36;4.50;;;2.60;;
50631;SDS011;49583;45.590;-122.498;2022-10-31T14:33:50;10.40;;;2.80;;
50631;SDS011;49583;45.590;-122.498;2022-10-31T14:36:10;10.70;;;3.40;;
50631;SDS011;49583;45.590;-122.498;2022-10-31T14:48:01;7.90;;;2.70;;
50631;SDS011;49583;45.590;-122.498;2022-10-31T14:52:28;8.90;;;3.00;;
50631;SDS011;49583;45.590;-122.498;2022-10-31T14:54:39;5.70;;;3.20;;
50631;SDS011;49583;45.590;-122.498;2022-10-31T14:56:53;6.80;;;2.70;;
50631;SDS011;49583;45.590;-122.498;2022-10-31T14:59:03;8.40;;;3.00;;